sensor_id;sensor_type;location;lat;lon;timestamp;P1;durP1;ratioP1;P2;durP2;ratioP2
22829;SDS011;11581;51.250;6.778;2024-03-07T00:02:16;31.45;;;20.50;;
22829;SDS011;11581;51.250;6.778;2024-03-07T00:04:43;33.05;;;19.17;;
22829;SDS011;11581;51.250;6.778;2024-03-07T00:07:09;30.17;;;18.60;;
22829;SDS011;11581;51.250;6.778;2024-03-07T00:09:36;32.45;;;20.30;;
22829;SDS011;11581;51.250;6.778;2024-03-07T00:12:03;33.90;;;20.45;;
22829;SDS011;11581;51.250;6.778;2024-03-07T00:14:29;31.48;;;19.45;;
22829;SDS011;11581;51.250;6.778;2024-03-07T00:16:56;31.50;;;20.27;;
22829;SDS011;11581;51.250;6.778;2024-03-07T00:19:24;29.77;;;19.13;;
22829;SDS011;11581;51.250;6.778;2024-03-07T00:21:52;34.53;;;20.55;;
22829;SDS011;11581;51.250;6.778;2024-03-07T00:24:18;32.80;;;20.50;;
22829;SDS011;11581;51.250;6.778;2024-03-07T00:26:45;32.63;;;19.95;;
22829;SDS011;11581;51.250;6.778;2024-03-07T00:29:12;32.17;;;20.27;;
22829;SDS011;11581;51.250;6.778;2024-03-07T00:31:38;34.85;;;21.42;;
22829;SDS011;11581;51.250;6.778;2024-03-07T00:34:04;31.80;;;20.50;;
22829;SDS011;11581;51.250;6.778;2024-03-07T00:36:32;34.50;;;20.75;;
22829;SDS011;11581;51.250;6.778;2024-03-07T00:38:59;32.33;;;20.85;;
22829;SDS011;11581;51.250;6.778;2024-03-07T00:41:25;33.75;;;20.33;;
22829;SDS011;11581;51.250;6.778;2024-03-07T00:43:52;31.75;;;20.48;;
22829;SDS011;11581;51.250;6.778;2024-03-07T00:46:18;33.25;;;20.70;;
22829;SDS011;11581;51.250;6.778;2024-03-07T00:48:45;34.08;;;20.25;;
22829;SDS011;11581;51.250;6.778;2024-03-07T00:51:11;31.65;;;20.73;;
22829;SDS011;11581;51.250;6.778;2024-03-07T00:53:39;33.97;;;20.80;;
22829;SDS011;11581;51.250;6.778;2024-03-07T00:56:06;33.70;;;21.20;;
22829;SDS011;11581;51.250;6.778;2024-03-07T00:58:32;34.28;;;20.75;;
22829;SDS011;11581;51.250;6.778;2024-03-07T01:00:59;33.92;;;20.98;;
22829;SDS011;11581;51.250;6.778;2024-03-07T01:03:26;34.47;;;21.23;;
22829;SDS011;11581;51.250;6.778;2024-03-07T01:05:53;33.38;;;20.85;;
22829;SDS011;11581;51.250;6.778;2024-03-07T01:08:19;35.90;;;21.33;;
22829;SDS011;11581;51.250;6.778;2024-03-07T01:10:47;33.25;;;20.77;;
22829;SDS011;11581;51.250;6.778;2024-03-07T01:13:14;36.08;;;21.95;;
22829;SDS011;11581;51.250;6.778;2024-03-07T01:15:44;30.45;;;20.10;;
22829;SDS011;11581;51.250;6.778;2024-03-07T01:18:10;37.20;;;21.42;;
22829;SDS011;11581;51.250;6.778;2024-03-07T01:20:38;29.90;;;20.08;;
22829;SDS011;11581;51.250;6.778;2024-03-07T01:23:04;33.75;;;21.23;;
22829;SDS011;11581;51.250;6.778;2024-03-07T01:25:30;32.72;;;20.40;;
22829;SDS011;11581;51.250;6.778;2024-03-07T01:28:00;36.83;;;22.65;;
22829;SDS011;11581;51.250;6.778;2024-03-07T01:30:29;33.63;;;20.45;;
22829;SDS011;11581;51.250;6.778;2024-03-07T01:32:56;36.70;;;21.55;;
22829;SDS011;11581;51.250;6.778;2024-03-07T01:35:23;35.30;;;21.23;;
22829;SDS011;11581;51.250;6.778;2024-03-07T01:37:49;37.88;;;21.52;;
22829;SDS011;11581;51.250;6.778;2024-03-07T01:40:15;33.92;;;20.88;;
22829;SDS011;11581;51.250;6.778;2024-03-07T01:42:42;32.95;;;19.33;;
22829;SDS011;11581;51.250;6.778;2024-03-07T01:45:10;32.78;;;20.60;;
22829;SDS011;11581;51.250;6.778;2024-03-07T01:47:36;37.30;;;20.90;;
22829;SDS011;11581;51.250;6.778;2024-03-07T01:50:02;35.78;;;21.33;;
22829;SDS011;11581;51.250;6.778;2024-03-07T01:52:29;36.80;;;20.85;;
22829;SDS011;11581;51.250;6.778;2024-03-07T01:54:56;33.15;;;20.27;;
22829;SDS011;11581;51.250;6.778;2024-03-07T01:57:23;34.45;;;21.55;;
22829;SDS011;11581;51.250;6.778;2024-03-07T01:59:49;35.60;;;21.73;;
22829;SDS011;11581;51.250;6.778;2024-03-07T02:02:17;39.28;;;22.10;;
22829;SDS011;11581;51.250;6.778;2024-03-07T02:04:44;34.00;;;21.73;;
22829;SDS011;11581;51.250;6.778;2024-03-07T02:07:10;34.83;;;21.55;;
22829;SDS011;11581;51.250;6.778;2024-03-07T02:09:37;32.55;;;20.10;;
22829;SDS011;11581;51.250;6.778;2024-03-07T02:12:03;36.50;;;21.98;;
22829;SDS011;11581;51.250;6.778;2024-03-07T02:14:30;37.47;;;22.27;;
22829;SDS011;11581;51.250;6.778;2024-03-07T02:16:57;39.45;;;22.00;;
22829;SDS011;11581;51.250;6.778;2024-03-07T02:19:25;34.72;;;20.75;;
22829;SDS011;11581;51.250;6.778;2024-03-07T02:21:53;36.38;;;22.45;;
22829;SDS011;11581;51.250;6.778;2024-03-07T02:24:20;39.17;;;21.50;;
22829;SDS011;11581;51.250;6.778;2024-03-07T02:26:46;35.15;;;21.60;;
22829;SDS011;11581;51.250;6.778;2024-03-07T02:29:13;34.28;;;21.00;;
22829;SDS011;11581;51.250;6.778;2024-03-07T02:31:39;36.63;;;21.65;;
22829;SDS011;11581;51.250;6.778;2024-03-07T02:34:06;35.35;;;21.77;;
22829;SDS011;11581;51.250;6.778;2024-03-07T02:36:33;34.22;;;20.95;;
22829;SDS011;11581;51.250;6.778;2024-03-07T02:39:01;37.17;;;22.35;;
22829;SDS011;11581;51.250;6.778;2024-03-07T02:41:28;33.35;;;20.58;;
22829;SDS011;11581;51.250;6.778;2024-03-07T02:43:54;34.88;;;21.00;;
22829;SDS011;11581;51.250;6.778;2024-03-07T02:46:21;34.33;;;21.27;;
22829;SDS011;11581;51.250;6.778;2024-03-07T02:48:47;34.00;;;20.75;;
22829;SDS011;11581;51.250;6.778;2024-03-07T02:51:14;32.45;;;18.92;;
22829;SDS011;11581;51.250;6.778;2024-03-07T02:53:40;35.90;;;19.20;;
22829;SDS011;11581;51.250;6.778;2024-03-07T02:56:08;26.83;;;18.02;;
22829;SDS011;11581;51.250;6.778;2024-03-07T02:58:34;35.42;;;19.67;;
22829;SDS011;11581;51.250;6.778;2024-03-07T03:01:01;28.23;;;16.38;;
22829;SDS011;11581;51.250;6.778;2024-03-07T03:03:28;27.13;;;18.05;;
22829;SDS011;11581;51.250;6.778;2024-03-07T03:05:56;25.02;;;16.60;;
22829;SDS011;11581;51.250;6.778;2024-03-07T03:08:22;27.05;;;17.33;;
22829;SDS011;11581;51.250;6.778;2024-03-07T03:10:49;25.30;;;16.98;;
22829;SDS011;11581;51.250;6.778;2024-03-07T03:13:17;23.63;;;16.25;;
22829;SDS011;11581;51.250;6.778;2024-03-07T03:15:44;23.30;;;16.60;;
22829;SDS011;11581;51.250;6.778;2024-03-07T03:18:10;27.50;;;17.08;;
22829;SDS011;11581;51.250;6.778;2024-03-07T03:20:37;24.83;;;16.23;;
22829;SDS011;11581;51.250;6.778;2024-03-07T03:23:05;24.67;;;16.60;;
22829;SDS011;11581;51.250;6.778;2024-03-07T03:25:31;27.33;;;17.05;;
22829;SDS011;11581;51.250;6.778;2024-03-07T03:28:00;27.02;;;17.95;;
22829;SDS011;11581;51.250;6.778;2024-03-07T03:30:28;25.70;;;16.60;;
22829;SDS011;11581;51.250;6.778;2024-03-07T03:32:54;25.48;;;17.25;;
22829;SDS011;11581;51.250;6.778;2024-03-07T03:35:20;26.30;;;17.67;;
22829;SDS011;11581;51.250;6.778;2024-03-07T03:37:47;24.20;;;16.50;;
22829;SDS011;11581;51.250;6.778;2024-03-07T03:40:13;24.45;;;16.52;;
22829;SDS011;11581;51.250;6.778;2024-03-07T03:42:40;24.45;;;16.52;;
22829;SDS011;11581;51.250;6.778;2024-03-07T03:45:07;23.85;;;16.33;;
22829;SDS011;11581;51.250;6.778;2024-03-07T03:47:41;25.27;;;17.02;;
22829;SDS011;11581;51.250;6.778;2024-03-07T03:50:08;26.73;;;17.20;;
22829;SDS011;11581;51.250;6.778;2024-03-07T03:52:35;26.95;;;17.70;;
22829;SDS011;11581;51.250;6.778;2024-03-07T03:55:02;27.25;;;17.45;;
22829;SDS011;11581;51.250;6.778;2024-03-07T03:57:29;25.13;;;16.80;;
22829;SDS011;11581;51.250;6.778;2024-03-07T03:59:56;24.67;;;16.58;;
22829;SDS011;11581;51.250;6.778;2024-03-07T04:02:22;26.80;;;16.60;;
22829;SDS011;11581;51.250;6.778;2024-03-07T04:04:50;24.42;;;16.60;;
22829;SDS011;11581;51.250;6.778;2024-03-07T04:07:17;25.92;;;16.45;;
22829;SDS011;11581;51.250;6.778;2024-03-07T04:09:44;27.75;;;17.42;;
22829;SDS011;11581;51.250;6.778;2024-03-07T04:12:10;26.73;;;17.05;;
22829;SDS011;11581;51.250;6.778;2024-03-07T04:14:37;24.17;;;16.95;;
22829;SDS011;11581;51.250;6.778;2024-03-07T04:17:04;24.92;;;17.38;;
22829;SDS011;11581;51.250;6.778;2024-03-07T04:19:32;25.13;;;16.52;;
22829;SDS011;11581;51.250;6.778;2024-03-07T04:22:00;27.23;;;18.05;;
22829;SDS011;11581;51.250;6.778;2024-03-07T04:24:28;27.70;;;17.63;;
22829;SDS011;11581;51.250;6.778;2024-03-07T04:26:55;28.15;;;17.50;;
22829;SDS011;11581;51.250;6.778;2024-03-07T04:29:20;29.60;;;17.88;;
22829;SDS011;11581;51.250;6.778;2024-03-07T04:31:46;28.52;;;17.65;;
22829;SDS011;11581;51.250;6.778;2024-03-07T04:34:13;27.40;;;18.13;;
22829;SDS011;11581;51.250;6.778;2024-03-07T04:36:39;28.10;;;17.65;;
22829;SDS011;11581;51.250;6.778;2024-03-07T04:39:08;31.00;;;19.38;;
22829;SDS011;11581;51.250;6.778;2024-03-07T04:41:47;29.67;;;18.50;;
22829;SDS011;11581;51.250;6.778;2024-03-07T04:44:14;33.67;;;19.80;;
22829;SDS011;11581;51.250;6.778;2024-03-07T04:46:40;31.77;;;19.75;;
22829;SDS011;11581;51.250;6.778;2024-03-07T04:49:09;29.23;;;18.35;;
22829;SDS011;11581;51.250;6.778;2024-03-07T04:51:35;32.03;;;19.85;;
22829;SDS011;11581;51.250;6.778;2024-03-07T04:54:02;31.08;;;19.65;;
22829;SDS011;11581;51.250;6.778;2024-03-07T04:56:30;34.13;;;20.70;;
22829;SDS011;11581;51.250;6.778;2024-03-07T04:58:56;31.30;;;19.20;;
22829;SDS011;11581;51.250;6.778;2024-03-07T05:01:22;31.05;;;19.92;;
22829;SDS011;11581;51.250;6.778;2024-03-07T05:03:50;32.00;;;19.92;;
22829;SDS011;11581;51.250;6.778;2024-03-07T05:06:17;32.88;;;19.85;;
22829;SDS011;11581;51.250;6.778;2024-03-07T05:08:44;30.77;;;19.75;;
22829;SDS011;11581;51.250;6.778;2024-03-07T05:11:10;31.58;;;19.25;;
22829;SDS011;11581;51.250;6.778;2024-03-07T05:13:38;29.85;;;19.50;;
22829;SDS011;11581;51.250;6.778;2024-03-07T05:16:07;31.73;;;19.92;;
22829;SDS011;11581;51.250;6.778;2024-03-07T05:18:34;32.67;;;20.42;;
22829;SDS011;11581;51.250;6.778;2024-03-07T05:21:00;34.60;;;20.77;;
22829;SDS011;11581;51.250;6.778;2024-03-07T05:23:47;32.33;;;20.52;;
22829;SDS011;11581;51.250;6.778;2024-03-07T05:26:14;29.13;;;19.75;;
22829;SDS011;11581;51.250;6.778;2024-03-07T05:28:42;30.80;;;20.20;;
22829;SDS011;11581;51.250;6.778;2024-03-07T05:31:08;31.50;;;20.40;;
22829;SDS011;11581;51.250;6.778;2024-03-07T05:33:37;30.85;;;19.98;;
22829;SDS011;11581;51.250;6.778;2024-03-07T05:36:05;29.73;;;19.85;;
22829;SDS011;11581;51.250;6.778;2024-03-07T05:38:40;28.67;;;18.83;;
22829;SDS011;11581;51.250;6.778;2024-03-07T05:41:06;31.08;;;18.95;;
22829;SDS011;11581;51.250;6.778;2024-03-07T05:43:35;30.48;;;19.27;;
22829;SDS011;11581;51.250;6.778;2024-03-07T05:46:03;31.98;;;20.48;;
22829;SDS011;11581;51.250;6.778;2024-03-07T05:48:31;32.20;;;20.77;;
22829;SDS011;11581;51.250;6.778;2024-03-07T05:50:58;34.03;;;19.80;;
22829;SDS011;11581;51.250;6.778;2024-03-07T05:53:25;30.13;;;19.48;;
22829;SDS011;11581;51.250;6.778;2024-03-07T05:55:51;31.05;;;19.52;;
22829;SDS011;11581;51.250;6.778;2024-03-07T05:58:18;31.55;;;20.60;;
22829;SDS011;11581;51.250;6.778;2024-03-07T06:00:45;32.10;;;19.13;;
22829;SDS011;11581;51.250;6.778;2024-03-07T06:03:15;31.75;;;20.42;;
22829;SDS011;11581;51.250;6.778;2024-03-07T06:05:42;30.52;;;20.40;;
22829;SDS011;11581;51.250;6.778;2024-03-07T06:08:13;30.90;;;20.02;;
22829;SDS011;11581;51.250;6.778;2024-03-07T06:10:41;29.13;;;19.40;;
22829;SDS011;11581;51.250;6.778;2024-03-07T06:13:08;30.08;;;19.45;;
22829;SDS011;11581;51.250;6.778;2024-03-07T06:15:34;29.25;;;17.98;;
22829;SDS011;11581;51.250;6.778;2024-03-07T06:18:02;32.38;;;20.75;;
22829;SDS011;11581;51.250;6.778;2024-03-07T06:20:30;36.83;;;21.08;;
22829;SDS011;11581;51.250;6.778;2024-03-07T06:22:57;32.95;;;20.52;;
22829;SDS011;11581;51.250;6.778;2024-03-07T06:25:24;29.50;;;19.55;;
22829;SDS011;11581;51.250;6.778;2024-03-07T06:28:01;32.53;;;19.65;;
22829;SDS011;11581;51.250;6.778;2024-03-07T06:30:34;32.78;;;21.48;;
22829;SDS011;11581;51.250;6.778;2024-03-07T06:33:01;32.80;;;21.33;;
22829;SDS011;11581;51.250;6.778;2024-03-07T06:35:27;34.70;;;21.48;;
22829;SDS011;11581;51.250;6.778;2024-03-07T06:37:55;32.22;;;20.98;;
22829;SDS011;11581;51.250;6.778;2024-03-07T06:40:21;33.22;;;21.55;;
22829;SDS011;11581;51.250;6.778;2024-03-07T06:42:48;31.45;;;21.40;;
22829;SDS011;11581;51.250;6.778;2024-03-07T06:45:14;34.72;;;21.27;;
22829;SDS011;11581;51.250;6.778;2024-03-07T06:47:41;34.88;;;22.42;;
22829;SDS011;11581;51.250;6.778;2024-03-07T06:50:08;31.63;;;21.48;;
22829;SDS011;11581;51.250;6.778;2024-03-07T06:52:34;33.03;;;21.40;;
22829;SDS011;11581;51.250;6.778;2024-03-07T06:55:03;31.23;;;21.17;;
22829;SDS011;11581;51.250;6.778;2024-03-07T06:57:32;33.28;;;20.45;;
22829;SDS011;11581;51.250;6.778;2024-03-07T06:59:59;27.60;;;19.63;;
22829;SDS011;11581;51.250;6.778;2024-03-07T07:02:25;28.80;;;20.33;;
22829;SDS011;11581;51.250;6.778;2024-03-07T07:04:53;25.80;;;18.67;;
22829;SDS011;11581;51.250;6.778;2024-03-07T07:07:19;27.20;;;18.73;;
22829;SDS011;11581;51.250;6.778;2024-03-07T07:09:45;27.98;;;19.42;;
22829;SDS011;11581;51.250;6.778;2024-03-07T07:12:18;26.58;;;19.15;;
22829;SDS011;11581;51.250;6.778;2024-03-07T07:14:44;25.35;;;19.27;;
22829;SDS011;11581;51.250;6.778;2024-03-07T07:17:10;26.35;;;18.27;;
22829;SDS011;11581;51.250;6.778;2024-03-07T07:19:38;27.35;;;18.23;;
22829;SDS011;11581;51.250;6.778;2024-03-07T07:22:05;22.83;;;18.17;;
22829;SDS011;11581;51.250;6.778;2024-03-07T07:24:31;24.67;;;18.60;;
22829;SDS011;11581;51.250;6.778;2024-03-07T07:26:59;22.20;;;17.63;;
22829;SDS011;11581;51.250;6.778;2024-03-07T07:29:28;23.60;;;17.08;;
22829;SDS011;11581;51.250;6.778;2024-03-07T07:31:54;23.40;;;17.80;;
22829;SDS011;11581;51.250;6.778;2024-03-07T07:34:21;21.45;;;16.42;;
22829;SDS011;11581;51.250;6.778;2024-03-07T07:36:47;22.80;;;16.85;;
22829;SDS011;11581;51.250;6.778;2024-03-07T07:39:14;22.38;;;17.30;;
22829;SDS011;11581;51.250;6.778;2024-03-07T07:41:42;22.25;;;15.82;;
22829;SDS011;11581;51.250;6.778;2024-03-07T07:44:08;21.58;;;15.23;;
22829;SDS011;11581;51.250;6.778;2024-03-07T07:46:36;19.92;;;15.65;;
22829;SDS011;11581;51.250;6.778;2024-03-07T07:49:03;19.15;;;13.75;;
22829;SDS011;11581;51.250;6.778;2024-03-07T07:51:29;18.60;;;13.30;;
22829;SDS011;11581;51.250;6.778;2024-03-07T07:53:56;15.00;;;12.27;;
22829;SDS011;11581;51.250;6.778;2024-03-07T07:56:22;18.05;;;12.02;;
22829;SDS011;11581;51.250;6.778;2024-03-07T07:58:49;17.20;;;11.73;;
22829;SDS011;11581;51.250;6.778;2024-03-07T08:01:16;15.52;;;13.10;;
22829;SDS011;11581;51.250;6.778;2024-03-07T08:03:44;15.75;;;11.93;;
22829;SDS011;11581;51.250;6.778;2024-03-07T08:06:11;13.30;;;10.98;;
22829;SDS011;11581;51.250;6.778;2024-03-07T08:08:37;16.98;;;11.38;;
22829;SDS011;11581;51.250;6.778;2024-03-07T08:11:04;14.55;;;11.00;;
22829;SDS011;11581;51.250;6.778;2024-03-07T08:13:30;20.88;;;11.38;;
22829;SDS011;11581;51.250;6.778;2024-03-07T08:15:57;12.77;;;10.57;;
22829;SDS011;11581;51.250;6.778;2024-03-07T08:18:24;14.13;;;10.95;;
22829;SDS011;11581;51.250;6.778;2024-03-07T08:20:53;18.20;;;11.90;;
22829;SDS011;11581;51.250;6.778;2024-03-07T08:23:20;12.57;;;10.18;;
22829;SDS011;11581;51.250;6.778;2024-03-07T08:25:48;21.27;;;11.50;;
22829;SDS011;11581;51.250;6.778;2024-03-07T08:28:15;14.85;;;10.52;;
22829;SDS011;11581;51.250;6.778;2024-03-07T08:30:41;15.23;;;10.73;;
22829;SDS011;11581;51.250;6.778;2024-03-07T08:33:08;15.70;;;10.68;;
22829;SDS011;11581;51.250;6.778;2024-03-07T08:35:35;15.38;;;11.50;;
22829;SDS011;11581;51.250;6.778;2024-03-07T08:38:03;13.80;;;10.18;;
22829;SDS011;11581;51.250;6.778;2024-03-07T08:40:30;16.63;;;9.80;;
22829;SDS011;11581;51.250;6.778;2024-03-07T08:42:57;14.73;;;10.77;;
22829;SDS011;11581;51.250;6.778;2024-03-07T08:45:24;14.65;;;10.73;;
22829;SDS011;11581;51.250;6.778;2024-03-07T08:47:51;14.98;;;10.20;;
22829;SDS011;11581;51.250;6.778;2024-03-07T08:50:19;15.35;;;11.05;;
22829;SDS011;11581;51.250;6.778;2024-03-07T08:52:46;15.60;;;10.68;;
22829;SDS011;11581;51.250;6.778;2024-03-07T08:55:14;15.63;;;10.25;;
22829;SDS011;11581;51.250;6.778;2024-03-07T08:57:42;14.45;;;11.02;;
22829;SDS011;11581;51.250;6.778;2024-03-07T09:00:11;14.27;;;10.35;;
22829;SDS011;11581;51.250;6.778;2024-03-07T09:02:47;14.07;;;9.63;;
22829;SDS011;11581;51.250;6.778;2024-03-07T09:05:15;14.50;;;10.20;;
22829;SDS011;11581;51.250;6.778;2024-03-07T09:07:42;12.63;;;8.90;;
22829;SDS011;11581;51.250;6.778;2024-03-07T09:10:10;14.30;;;8.90;;
22829;SDS011;11581;51.250;6.778;2024-03-07T09:12:38;13.15;;;9.98;;
22829;SDS011;11581;51.250;6.778;2024-03-07T09:15:04;14.98;;;9.70;;
22829;SDS011;11581;51.250;6.778;2024-03-07T09:17:31;12.35;;;9.40;;
22829;SDS011;11581;51.250;6.778;2024-03-07T09:19:57;14.52;;;9.75;;
22829;SDS011;11581;51.250;6.778;2024-03-07T09:22:24;16.98;;;9.55;;
22829;SDS011;11581;51.250;6.778;2024-03-07T09:24:50;11.38;;;8.25;;
22829;SDS011;11581;51.250;6.778;2024-03-07T09:27:17;12.73;;;9.35;;
22829;SDS011;11581;51.250;6.778;2024-03-07T09:29:48;11.10;;;8.68;;
22829;SDS011;11581;51.250;6.778;2024-03-07T09:32:14;12.50;;;9.02;;
22829;SDS011;11581;51.250;6.778;2024-03-07T09:34:42;13.30;;;9.27;;
22829;SDS011;11581;51.250;6.778;2024-03-07T09:37:08;12.48;;;8.18;;
22829;SDS011;11581;51.250;6.778;2024-03-07T09:39:35;11.98;;;8.32;;
22829;SDS011;11581;51.250;6.778;2024-03-07T09:42:02;13.95;;;8.77;;
22829;SDS011;11581;51.250;6.778;2024-03-07T09:44:28;13.52;;;9.52;;
22829;SDS011;11581;51.250;6.778;2024-03-07T09:46:57;12.48;;;8.95;;
22829;SDS011;11581;51.250;6.778;2024-03-07T09:49:25;12.63;;;8.48;;
22829;SDS011;11581;51.250;6.778;2024-03-07T09:51:54;21.30;;;9.45;;
22829;SDS011;11581;51.250;6.778;2024-03-07T09:54:22;16.23;;;9.10;;
22829;SDS011;11581;51.250;6.778;2024-03-07T09:56:49;12.60;;;8.23;;
22829;SDS011;11581;51.250;6.778;2024-03-07T09:59:16;15.30;;;9.60;;
22829;SDS011;11581;51.250;6.778;2024-03-07T10:01:45;14.00;;;7.97;;
22829;SDS011;11581;51.250;6.778;2024-03-07T10:04:15;15.65;;;9.93;;
22829;SDS011;11581;51.250;6.778;2024-03-07T10:06:42;14.30;;;9.45;;
22829;SDS011;11581;51.250;6.778;2024-03-07T10:09:10;12.90;;;8.35;;
22829;SDS011;11581;51.250;6.778;2024-03-07T10:11:38;12.73;;;8.73;;
22829;SDS011;11581;51.250;6.778;2024-03-07T10:14:06;11.38;;;8.80;;
22829;SDS011;11581;51.250;6.778;2024-03-07T10:16:33;13.52;;;9.85;;
22829;SDS011;11581;51.250;6.778;2024-03-07T10:18:59;20.73;;;14.13;;
22829;SDS011;11581;51.250;6.778;2024-03-07T10:21:32;23.90;;;12.10;;
22829;SDS011;11581;51.250;6.778;2024-03-07T10:24:05;17.05;;;11.18;;
22829;SDS011;11581;51.250;6.778;2024-03-07T10:26:34;17.85;;;10.57;;
22829;SDS011;11581;51.250;6.778;2024-03-07T10:29:00;14.70;;;10.18;;
22829;SDS011;11581;51.250;6.778;2024-03-07T10:31:30;18.13;;;10.10;;
22829;SDS011;11581;51.250;6.778;2024-03-07T10:34:00;13.85;;;9.52;;
22829;SDS011;11581;51.250;6.778;2024-03-07T10:36:27;15.05;;;8.52;;
22829;SDS011;11581;51.250;6.778;2024-03-07T10:38:57;15.73;;;9.35;;
22829;SDS011;11581;51.250;6.778;2024-03-07T10:41:37;12.05;;;7.60;;
22829;SDS011;11581;51.250;6.778;2024-03-07T10:44:07;12.18;;;8.57;;
22829;SDS011;11581;51.250;6.778;2024-03-07T10:46:35;11.70;;;8.00;;
22829;SDS011;11581;51.250;6.778;2024-03-07T10:49:02;13.35;;;8.85;;
22829;SDS011;11581;51.250;6.778;2024-03-07T10:51:33;15.13;;;9.00;;
22829;SDS011;11581;51.250;6.778;2024-03-07T10:54:08;21.10;;;12.50;;
22829;SDS011;11581;51.250;6.778;2024-03-07T10:56:47;19.10;;;12.38;;
22829;SDS011;11581;51.250;6.778;2024-03-07T10:59:17;18.17;;;10.60;;
22829;SDS011;11581;51.250;6.778;2024-03-07T11:01:45;14.27;;;10.00;;
22829;SDS011;11581;51.250;6.778;2024-03-07T11:04:15;17.17;;;11.55;;
22829;SDS011;11581;51.250;6.778;2024-03-07T11:06:42;13.55;;;8.65;;
22829;SDS011;11581;51.250;6.778;2024-03-07T11:09:11;14.75;;;8.88;;
22829;SDS011;11581;51.250;6.778;2024-03-07T11:11:38;11.68;;;8.25;;
22829;SDS011;11581;51.250;6.778;2024-03-07T11:14:07;15.63;;;8.95;;
22829;SDS011;11581;51.250;6.778;2024-03-07T11:16:36;11.18;;;7.85;;
22829;SDS011;11581;51.250;6.778;2024-03-07T11:19:19;11.98;;;8.20;;
22829;SDS011;11581;51.250;6.778;2024-03-07T11:21:46;10.98;;;7.47;;
22829;SDS011;11581;51.250;6.778;2024-03-07T11:24:24;12.38;;;8.15;;
22829;SDS011;11581;51.250;6.778;2024-03-07T11:26:51;12.45;;;7.82;;
22829;SDS011;11581;51.250;6.778;2024-03-07T11:29:38;11.38;;;7.80;;
22829;SDS011;11581;51.250;6.778;2024-03-07T11:32:06;12.40;;;7.80;;
22829;SDS011;11581;51.250;6.778;2024-03-07T11:34:32;11.95;;;8.20;;
22829;SDS011;11581;51.250;6.778;2024-03-07T11:37:03;10.23;;;7.40;;
22829;SDS011;11581;51.250;6.778;2024-03-07T11:39:40;13.00;;;7.55;;
22829;SDS011;11581;51.250;6.778;2024-03-07T11:42:07;12.57;;;8.10;;
22829;SDS011;11581;51.250;6.778;2024-03-07T11:44:34;11.00;;;6.85;;
22829;SDS011;11581;51.250;6.778;2024-03-07T11:47:01;11.75;;;7.95;;
22829;SDS011;11581;51.250;6.778;2024-03-07T11:49:33;13.50;;;7.75;;
22829;SDS011;11581;51.250;6.778;2024-03-07T11:52:01;11.98;;;7.38;;
22829;SDS011;11581;51.250;6.778;2024-03-07T11:54:29;11.25;;;7.53;;
22829;SDS011;11581;51.250;6.778;2024-03-07T11:56:57;10.75;;;7.75;;
22829;SDS011;11581;51.250;6.778;2024-03-07T11:59:24;11.43;;;7.80;;
22829;SDS011;11581;51.250;6.778;2024-03-07T12:01:57;11.95;;;7.68;;
22829;SDS011;11581;51.250;6.778;2024-03-07T12:04:26;11.82;;;7.55;;
22829;SDS011;11581;51.250;6.778;2024-03-07T12:06:52;14.07;;;8.13;;
22829;SDS011;11581;51.250;6.778;2024-03-07T12:11:23;12.07;;;8.52;;
22829;SDS011;11581;51.250;6.778;2024-03-07T12:13:51;11.77;;;7.95;;
22829;SDS011;11581;51.250;6.778;2024-03-07T12:16:17;12.00;;;8.60;;
22829;SDS011;11581;51.250;6.778;2024-03-07T12:18:44;10.95;;;7.38;;
22829;SDS011;11581;51.250;6.778;2024-03-07T12:21:10;11.32;;;7.13;;
22829;SDS011;11581;51.250;6.778;2024-03-07T12:23:37;9.60;;;6.55;;
22829;SDS011;11581;51.250;6.778;2024-03-07T12:26:05;11.50;;;6.82;;
22829;SDS011;11581;51.250;6.778;2024-03-07T12:28:33;14.30;;;7.88;;
22829;SDS011;11581;51.250;6.778;2024-03-07T12:30:59;11.80;;;7.68;;
22829;SDS011;11581;51.250;6.778;2024-03-07T12:33:28;13.02;;;8.25;;
22829;SDS011;11581;51.250;6.778;2024-03-07T12:35:56;13.55;;;8.57;;
22829;SDS011;11581;51.250;6.778;2024-03-07T12:38:31;10.88;;;8.10;;
22829;SDS011;11581;51.250;6.778;2024-03-07T12:41:03;13.40;;;8.18;;
22829;SDS011;11581;51.250;6.778;2024-03-07T12:43:33;11.52;;;8.00;;
22829;SDS011;11581;51.250;6.778;2024-03-07T12:46:00;12.68;;;8.20;;
22829;SDS011;11581;51.250;6.778;2024-03-07T12:48:26;11.38;;;7.78;;
22829;SDS011;11581;51.250;6.778;2024-03-07T12:50:53;14.05;;;8.70;;
22829;SDS011;11581;51.250;6.778;2024-03-07T12:53:20;12.15;;;8.13;;
22829;SDS011;11581;51.250;6.778;2024-03-07T12:55:47;11.60;;;8.30;;
22829;SDS011;11581;51.250;6.778;2024-03-07T12:58:14;14.38;;;8.75;;
22829;SDS011;11581;51.250;6.778;2024-03-07T13:00:42;11.43;;;7.60;;
22829;SDS011;11581;51.250;6.778;2024-03-07T13:03:08;11.77;;;7.53;;
22829;SDS011;11581;51.250;6.778;2024-03-07T13:05:35;12.15;;;7.90;;
22829;SDS011;11581;51.250;6.778;2024-03-07T13:08:05;10.73;;;7.93;;
22829;SDS011;11581;51.250;6.778;2024-03-07T13:10:34;13.77;;;8.05;;
22829;SDS011;11581;51.250;6.778;2024-03-07T13:13:03;13.10;;;8.18;;
22829;SDS011;11581;51.250;6.778;2024-03-07T13:15:29;11.65;;;8.02;;
22829;SDS011;11581;51.250;6.778;2024-03-07T13:17:57;14.43;;;8.05;;
22829;SDS011;11581;51.250;6.778;2024-03-07T13:20:24;13.13;;;8.20;;
22829;SDS011;11581;51.250;6.778;2024-03-07T13:22:51;13.50;;;7.85;;
22829;SDS011;11581;51.250;6.778;2024-03-07T13:25:20;11.25;;;8.07;;
22829;SDS011;11581;51.250;6.778;2024-03-07T13:27:51;11.02;;;7.65;;
22829;SDS011;11581;51.250;6.778;2024-03-07T13:30:20;11.10;;;8.00;;
22829;SDS011;11581;51.250;6.778;2024-03-07T13:32:51;12.63;;;8.38;;
22829;SDS011;11581;51.250;6.778;2024-03-07T13:35:20;12.05;;;8.63;;
22829;SDS011;11581;51.250;6.778;2024-03-07T13:37:47;13.40;;;9.10;;
22829;SDS011;11581;51.250;6.778;2024-03-07T13:40:14;12.00;;;9.13;;
22829;SDS011;11581;51.250;6.778;2024-03-07T13:42:49;12.77;;;9.88;;
22829;SDS011;11581;51.250;6.778;2024-03-07T13:45:17;14.30;;;10.20;;
22829;SDS011;11581;51.250;6.778;2024-03-07T13:47:43;13.63;;;8.85;;
22829;SDS011;11581;51.250;6.778;2024-03-07T13:50:11;13.85;;;8.52;;
22829;SDS011;11581;51.250;6.778;2024-03-07T13:52:39;16.08;;;9.55;;
22829;SDS011;11581;51.250;6.778;2024-03-07T13:55:19;13.15;;;9.00;;
22829;SDS011;11581;51.250;6.778;2024-03-07T13:57:49;12.40;;;8.48;;
22829;SDS011;11581;51.250;6.778;2024-03-07T14:00:25;12.85;;;8.98;;
22829;SDS011;11581;51.250;6.778;2024-03-07T14:03:05;11.85;;;8.35;;
22829;SDS011;11581;51.250;6.778;2024-03-07T14:05:46;11.70;;;8.50;;
22829;SDS011;11581;51.250;6.778;2024-03-07T14:08:26;10.75;;;8.48;;
22829;SDS011;11581;51.250;6.778;2024-03-07T14:11:16;11.57;;;8.05;;
22829;SDS011;11581;51.250;6.778;2024-03-07T14:13:50;10.82;;;8.35;;
22829;SDS011;11581;51.250;6.778;2024-03-07T14:21:51;9.82;;;7.43;;
22829;SDS011;11581;51.250;6.778;2024-03-07T14:24:34;11.20;;;7.32;;
22829;SDS011;11581;51.250;6.778;2024-03-07T14:27:09;10.45;;;6.82;;
22829;SDS011;11581;51.250;6.778;2024-03-07T14:29:46;9.48;;;7.28;;
22829;SDS011;11581;51.250;6.778;2024-03-07T14:32:14;11.25;;;7.35;;
22829;SDS011;11581;51.250;6.778;2024-03-07T14:34:47;12.93;;;7.22;;
22829;SDS011;11581;51.250;6.778;2024-03-07T14:37:17;11.27;;;7.18;;
22829;SDS011;11581;51.250;6.778;2024-03-07T14:39:48;9.70;;;6.95;;